Pembrey Sands, United Kingdom

1:32 AM BST on September 03, 2014 (GMT +0100)
Ffos las | Change Station
CLOSE
Current Station
Personal Weather Station
Location: Carway, CARMARTHENSHIRE
Elevation: 223 ft
Nearby Weather Stations

Elev 223 ft 51.73 °N, 4.23 °W | Updated 11 minutes ago

Mostly Cloudy
Mostly Cloudy
62.2 °F
Feels Like 62.2 °F
N
0.0
Wind Variable Wind from ESE
Gusts 0.0 mph

Today
High -- | Low -- °F
--% Chance of Precip.
Yesterday
High -- | Low -- °F
Precip. -- in
6:32 AM 7:59 PM
First Quarter, 56% visible
Pressure 30.21 in
Visibility 6.2 miles
Clouds Mostly Cloudy 4800 ft
Dew Point 45 °F
Humidity 53%
Rainfall 0.00 in
Snow Depth Not available.
UV 0 out of 12
Pollen Not available.
Air Quality Not available.
Flu Activity Not available.
METAR EGFF 030020Z 06003KT 9999 BKN048 16/15 Q1023

More Conditions Fewer Conditions

Pressure 30.21 in
Visibility 6.2 miles
Clouds Mostly Cloudy 4800 ft
Dew Point 45 °F
Humidity 53%
Rainfall 0.00 in
Snow Depth Not available.
UV 0 out of 12
Pollen Not available.
Air Quality Not available.
Flu Activity Not available.
METAR EGFF 030020Z 06003KT 9999 BKN048 16/15 Q1023

More Conditions Fewer Conditions

10-Day Weather Forecast

Almanac

Astronomy

Sep. 03, 2014 Rise Set
Actual Time 6:32 AM BST 7:59 PM BST
Civil Twilight 5:57 AM BST 8:34 PM BST
Nautical Twilight 5:15 AM BST 9:17 PM BST
Astronomical Twilight 4:27 AM BST 10:03 PM BST
Moon 3:51 PM BST No Moon Set
Length of Visible Light 14h 37m
Length of Day
13h 27m
Tomorrow will be 3m 53s shorter.
First Quarter, 56% of the Moon is Illuminated
Sep 2
First Quarter
Sep 8
Full
Sep 15
Last Quarter
Sep 24
New
Oct 1
First Quarter

Yesterday's Extremes

Country Highs Country Lows

Community

WunderPhotos

Upload Photos

1,749,812 photos uploaded!

Nearby

Snow Depth

Not available.

Earthquake Activity

City Distance Mag. Time & Date
No recent earthquake activity has been reported nearby.
Minimum magnitude displayed is 2.5.

Coastal Water Temperatures

Place Temperature
No Stations Reporting

Nearby Weather Stations